Latest Weather Observations for Trangie

IDN60801

Issued at 11:53 pm EDT Friday 23 February 2024 (issued every 10 minutes, with the page automatically refreshed every 10 minutes)

About weather observations | Map of weather stations | Latest weather observations for NSW | Other Formats
Station Details ID: 051049 Name: TRANGIE RESEARCH STATION AWS Lat: -31.99 Lon: 147.95 Height: 215.0 m
Data from the previous 72 hours. | See also: Recent months at Trangie
Date/Time
EDT
Temp
°C
App
Temp
°C
Dew
Point
°C
Rel
Hum
%
Delta-T
°C
Wind Press
QNH
hPa
Press
MSL
hPa
Rain since
9am
mm
Dir  Spd
km/h
Gust
km/h
Spd
kts
Gust
kts
23/11:30pm 24.9 20.3 5.7 29 9.9 SSW 19 28 10 15 1012.4 1011.2 0.6
23/11:00pm 25.7 20.8 5.3 27 10.5 SSW 20 28 11 15 1012.1 1010.9 0.6
23/10:30pm 26.9 21.5 6.3 27 10.9 SSW 24 32 13 17 1011.7 1010.5 0.6
23/10:00pm 27.4 23.3 7.8 29 10.7 SSW 19 26 10 14 1011.2 1010.0 0.6
23/09:30pm 27.9 24.6 9.7 32 10.2 SSW 17 22 9 12 1010.7 1009.5 0.6
23/09:00pm 28.9 25.2 10.1 31 10.7 SSW 20 28 11 15 1010.2 1009.0 0.6
23/08:30pm 30.1 26.8 11.6 32 10.8 SSW 20 30 11 16 1009.7 1008.5 0.6
23/08:00pm 31.3 27.8 12.2 31 11.4 SSW 22 32 12 17 1009.1 1007.9 0.6
23/07:30pm 32.6 28.0 12.3 29 12.1 SW 28 37 15 20 1008.6 1007.3 0.6
23/07:00pm 34.1 29.2 12.4 26 13.1 SW 30 46 16 25 1008.0 1006.8 0.6
23/06:30pm 35.7 30.4 12.6 25 14.0 SW 32 43 17 23 1007.5 1006.3 0.6
23/06:00pm 36.9 31.4 12.4 23 14.9 WSW 33 50 18 27 1007.1 1005.9 0.6
23/05:53pm 37.1 31.6 11.8 22 15.3 WSW 32 50 17 27 1007.0 1005.8 0.6
23/05:30pm 37.4 31.6 12.8 23 15.1 WSW 35 48 19 26 1006.8 1005.6 0.6
23/05:00pm 37.3 31.5 12.7 23 15.1 WSW 35 48 19 26 1006.8 1005.6 0.6
23/04:30pm 37.2 31.8 13.9 25 14.5 W 35 44 19 24 1006.8 1005.6 0.6
23/04:00pm 35.5 33.4 15.3 30 12.8 WNW 20 33 11 18 1007.1 1005.9 0.6
23/03:37pm 31.9 29.2 16.6 39 9.7 WNW 26 44 14 24 1007.8 1006.6 0.2
23/03:33pm 32.3 30.2 15.3 35 10.6 WNW 20 44 11 24 1007.7 1006.5 0.0
23/03:30pm 34.1 33.6 17.8 38 10.6 WNW 17 24 9 13 1007.6 1006.4 0.0
23/03:18pm 33.9 31.1 17.2 37 10.8 WSW 28 46 15 25 1007.8 1006.6 0.0
23/03:00pm 37.3 33.0 13.3 23 14.9 W 28 39 15 21 1007.9 1006.7 0.0
23/02:30pm 38.4 34.6 13.6 23 15.4 WNW 26 41 14 22 1008.2 1007.0 0.0
23/02:00pm 37.5 33.1 12.8 22 15.2 WNW 28 41 15 22 1008.8 1007.5 0.0
23/01:32pm 36.8 33.0 14.7 26 13.9 WNW 28 46 15 25 1009.3 1008.1 0.0
23/01:30pm 36.9 33.5 14.8 26 13.9 WNW 26 46 14 25 1009.3 1008.1 0.0
23/01:28pm 36.5 32.6 14.5 27 13.8 WNW 28 46 15 25 1009.4 1008.2 0.0
23/01:00pm 37.3 33.7 15.2 27 14.0 WNW 28 44 15 24 1009.8 1008.6 0.0
23/12:41pm 36.6 32.8 14.6 27 13.8 WNW 28 46 15 25 1010.0 1008.8 0.0
23/12:30pm 37.0 32.9 14.9 27 13.9 NW 30 43 16 23 1010.2 1009.0 0.0
23/12:00pm 36.6 32.8 15.7 29 13.3 NW 30 41 16 22 1010.6 1009.4 0.0
23/11:30am 36.0 32.4 16.2 30 12.7 NNW 30 41 16 22 1010.7 1009.5 0.0
23/11:00am 35.7 32.7 16.9 32 12.2 NNW 28 35 15 19 1010.8 1009.6 0.0
23/10:30am 34.3 31.6 16.6 34 11.3 NNW 26 35 14 19 1011.0 1009.8 0.0
23/10:00am 31.6 30.2 17.9 44 8.9 NNW 22 32 12 17 1011.2 1010.0 0.0
23/09:30am 31.3 30.1 18.3 46 8.4 NNW 22 32 12 17 1011.3 1010.1 0.0
23/09:00am 29.7 28.8 18.2 50 7.4 NNW 20 32 11 17 1011.3 1010.1 0.0
23/08:30am 26.8 26.2 18.4 60 5.4 N 19 26 10 14 1011.3 1010.1 0.0
23/08:00am 24.9 25.7 18.1 66 4.3 N 11 15 6 8 1011.2 1010.0 0.0
23/07:30am 23.9 24.2 17.9 69 3.8 N 13 17 7 9 1011.0 1009.8 0.0
23/07:00am 23.2 23.3 17.4 70 3.6 N 13 17 7 9 1010.6 1009.4 0.0
23/06:30am 23.0 22.9 17.0 69 3.7 N 13 17 7 9 1010.1 1008.9 0.0
23/06:00am 23.2 23.4 16.7 67 4.0 N 11 15 6 8 1009.8 1008.6 0.0
23/05:30am 23.8 23.6 16.6 64 4.4 N 13 17 7 9 1009.5 1008.3 0.0
23/05:00am 23.9 23.9 16.2 62 4.7 N 11 17 6 9 1009.3 1008.1 0.0
23/04:30am 24.7 24.3 16.2 59 5.2 N 13 19 7 10 1009.2 1008.0 0.0
23/04:00am 25.5 25.0 15.8 55 6.0 N 13 19 7 10 1009.4 1008.2 0.0
23/03:30am 25.0 24.4 15.6 56 5.7 NNE 13 17 7 9 1009.6 1008.4 0.0
23/03:00am 25.7 25.5 15.7 54 6.1 NNE 11 15 6 8 1009.7 1008.5 0.0
23/02:30am 26.0 25.3 15.4 52 6.5 N 13 17 7 9 1009.9 1008.7 0.0
23/02:00am 26.4 26.0 15.1 49 6.9 N 11 13 6 7 1010.1 1008.9 0.0
23/01:30am 26.2 26.3 15.6 52 6.5 N 9 11 5 6 1010.3 1009.1 0.0
23/01:00am 25.6 26.1 15.6 54 6.1 N 7 7 4 4 1010.5 1009.3 0.0
23/12:30am 25.4 26.1 15.7 55 5.9 N 6 7 3 4 1010.6 1009.4 0.0
23/12:00am 26.1 26.8 16.1 54 6.2 NNE 7 9 4 5 1010.8 1009.6 0.0
 
Date/Time
EDT
Temp
°C
App
Temp
°C
Dew
Point
°C
Rel
Hum
%
Delta-T
°C
Wind Press
QNH
hPa
Press
MSL
hPa
Rain since
9am
mm
Dir  Spd
km/h
Gust
km/h
Spd
kts
Gust
kts
22/11:30pm 25.8 26.6 15.8 54 6.1 N 6 7 3 4 1010.8 1009.6 0.0
22/11:00pm 26.6 27.3 15.6 50 6.8 NNW 6 7 3 4 1011.0 1009.8 0.0
22/10:30pm 27.6 28.1 15.6 48 7.4 N 7 11 4 6 1011.2 1010.0 0.0
22/10:00pm 28.3 28.2 15.9 47 7.7 N 11 15 6 8 1011.0 1009.8 0.0
22/09:30pm 28.7 28.5 15.6 45 8.1 N 11 15 6 8 1010.9 1009.7 0.0
22/09:00pm 29.9 29.4 14.8 39 9.3 N 11 13 6 7 1010.8 1009.6 0.0
22/08:30pm 30.4 30.0 14.1 37 9.9 N 9 11 5 6 1010.6 1009.4 0.0
22/08:00pm 31.4 30.8 13.6 33 10.8 NNW 9 11 5 6 1010.4 1009.2 0.0
22/07:30pm 33.1 31.6 13.2 30 12.1 NNW 13 17 7 9 1010.2 1009.0 0.0
22/07:00pm 34.9 33.2 12.5 25 13.6 WNW 13 20 7 11 1009.9 1008.7 0.0
22/06:30pm 35.8 34.8 13.3 26 13.8 NW 11 20 6 11 1009.7 1008.5 0.0
22/06:00pm 36.6 35.2 13.4 25 14.3 WNW 13 20 7 11 1009.6 1008.4 0.0
22/05:30pm 36.9 34.2 13.0 24 14.7 NW 19 28 10 15 1009.5 1008.3 0.0
22/05:00pm 36.3 34.2 12.5 24 14.5 NW 15 24 8 13 1009.6 1008.4 0.0
22/04:30pm 36.5 34.5 12.7 24 14.5 W 15 24 8 13 1009.8 1008.6 0.0
22/04:00pm 36.6 35.4 12.8 24 14.6 NW 11 22 6 12 1010.1 1008.9 0.0
22/03:30pm 37.6 37.4 13.6 24 14.9 SW 7 15 4 8 1010.3 1009.1 0.0
22/03:00pm 36.0 34.1 12.9 25 14.1 NW 15 26 8 14 1010.7 1009.5 0.0
22/02:30pm 34.6 33.8 12.9 27 13.2 N 9 17 5 9 1011.2 1010.0 0.0
22/02:00pm 35.4 34.8 13.5 26 13.5 WNW 9 19 5 10 1011.7 1010.5 0.0
22/01:30pm 35.6 34.5 13.1 25 13.8 NNW 11 17 6 9 1012.1 1010.9 0.0
22/01:00pm 34.4 33.5 13.8 29 12.7 N 11 17 6 9 1012.6 1011.4 0.0
22/12:30pm 34.5 34.4 14.9 31 12.3 NE 9 15 5 8 1013.1 1012.0 0.0
22/12:00pm 32.9 32.8 15.0 34 11.2 NNW 9 13 5 7 1013.7 1012.5 0.0
22/11:30am 32.1 31.5 15.6 37 10.3 N 13 19 7 10 1014.2 1013.0 0.0
22/11:00am 31.2 31.6 16.4 41 9.4 NNE 9 17 5 9 1014.4 1013.2 0.0
22/10:30am 30.0 30.6 16.8 45 8.4 NNE 9 15 5 8 1014.6 1013.4 0.0
22/10:00am 28.8 29.0 16.7 48 7.6 NE 11 15 6 8 1014.7 1013.5 0.0
22/09:30am 27.8 27.6 16.7 50 7.0 NE 13 20 7 11 1014.7 1013.5 0.0
22/09:00am 26.6 27.6 17.7 58 5.6 E 9 15 5 8 1014.6 1013.4 0.0
22/08:30am 25.1 26.1 17.8 64 4.6 E 9 15 5 8 1014.6 1013.4 0.0
22/08:00am 23.7 24.3 17.7 69 3.8 E 11 15 6 8 1014.3 1013.1 0.0
22/07:30am 21.8 23.1 17.6 77 2.6 E 7 11 4 6 1014.1 1012.9 0.0
22/07:00am 21.2 22.0 17.2 78 2.5 E 9 11 5 6 1013.7 1012.5 0.0
22/06:30am 21.4 22.2 17.2 77 2.6 E 9 13 5 7 1013.4 1012.2 0.0
22/06:00am 21.8 22.6 17.2 75 2.8 E 9 13 5 7 1013.0 1011.8 0.0
22/05:30am 22.0 22.8 17.2 74 3.0 E 9 15 5 8 1012.6 1011.4 0.0
22/05:00am 22.5 22.5 17.2 72 3.3 E 13 20 7 11 1012.5 1011.3 0.0
22/04:30am 22.7 23.0 16.9 70 3.6 E 11 17 6 9 1012.5 1011.3 0.0
22/04:00am 23.0 22.9 17.0 69 3.7 E 13 19 7 10 1012.6 1011.4 0.0
22/03:30am 23.1 23.2 16.6 67 4.0 E 11 17 6 9 1012.9 1011.7 0.0
22/03:00am 23.3 23.7 16.4 65 4.2 ESE 9 15 5 8 1013.0 1011.8 0.0
22/02:30am 23.3 23.6 16.1 64 4.4 E 9 13 5 7 1013.3 1012.1 0.0
22/02:00am 23.5 23.7 15.8 62 4.7 E 9 11 5 6 1013.3 1012.1 0.0
22/01:30am 24.4 24.7 15.9 59 5.2 E 9 15 5 8 1013.6 1012.4 0.0
22/01:00am 24.8 24.5 15.4 56 5.7 E 11 20 6 11 1013.8 1012.6 0.0
22/12:30am 25.4 24.7 15.4 54 6.1 E 13 17 7 9 1013.9 1012.7 0.0
22/12:00am 25.1 24.9 14.6 52 6.3 E 9 13 5 7 1014.1 1012.9 0.0
 
Date/Time
EDT
Temp
°C
App
Temp
°C
Dew
Point
°C
Rel
Hum
%
Delta-T
°C
Wind Press
QNH
hPa
Press
MSL
hPa
Rain since
9am
mm
Dir  Spd
km/h
Gust
km/h
Spd
kts
Gust
kts
21/11:30pm 25.6 25.0 14.7 51 6.6 E 11 19 6 10 1014.0 1012.8 0.0
21/11:00pm 25.0 24.7 14.5 52 6.3 ESE 9 13 5 7 1013.9 1012.7 0.0
21/10:30pm 24.3 25.5 13.8 52 6.2 CALM 0 0 0 0 1013.9 1012.7 0.0
21/10:00pm 25.1 25.9 13.6 48 6.8 ESE 2 7 1 4 1013.6 1012.4 0.0
21/09:30pm 25.9 25.8 13.4 46 7.4 E 6 7 3 4 1013.5 1012.3 0.0
21/09:00pm 26.1 27.2 13.6 46 7.4 CALM 0 0 0 0 1013.0 1011.8 0.0
21/08:30pm 27.4 28.6 13.7 43 8.2 CALM 0 0 0 0 1012.6 1011.4 0.0
21/08:00pm 28.1 29.1 13.2 39 8.9 CALM 0 0 0 0 1012.3 1011.1 0.0
21/07:30pm 29.2 30.0 12.6 36 9.8 CALM 0 0 0 0 1012.1 1010.9 0.0
21/07:00pm 30.2 29.5 12.1 32 10.7 SE 7 13 4 7 1011.7 1010.5 0.0
21/06:30pm 30.8 30.3 12.7 33 10.8 ESE 7 13 4 7 1011.5 1010.3 0.0
21/06:00pm 31.3 30.0 10.1 27 12.2 ESE 7 13 4 7 1011.5 1010.3 0.0
21/05:30pm 31.5 30.2 11.3 29 11.8 SSE 9 13 5 7 1011.4 1010.2 0.0
21/05:00pm 31.7 31.0 12.0 30 11.7 S 7 11 4 6 1011.5 1010.3 0.0
21/04:30pm 31.4 31.0 11.2 29 11.8 NW 4 11 2 6 1011.8 1010.6 0.0
21/04:00pm 31.7 30.1 11.5 29 11.9 WSW 11 19 6 10 1012.1 1010.9 0.0
21/03:30pm 31.6 30.6 12.4 31 11.5 WSW 9 17 5 9 1012.4 1011.2 0.0
21/03:00pm 32.2 31.0 12.9 31 11.6 W 11 20 6 11 1012.7 1011.5 0.0
21/02:30pm 31.8 30.8 13.5 32 11.1 SW 11 24 6 13 1013.3 1012.1 0.0
21/02:00pm 32.3 31.9 13.0 31 11.7 NNE 7 15 4 8 1013.6 1012.4 0.0
21/01:30pm 32.2 31.4 12.9 31 11.6 NNE 9 15 5 8 1014.0 1012.8 0.0
21/01:00pm 30.4 30.4 14.1 37 9.9 ENE 7 11 4 6 1014.4 1013.2 0.0
21/12:30pm 30.0 30.6 15.3 41 9.1 NNE 6 11 3 6 1014.8 1013.6 0.0
21/12:00pm 29.6 29.6 15.3 41 8.8 N 9 19 5 10 1015.2 1014.0 0.0
21/11:30am 29.4 29.4 16.2 44 8.3 NNE 11 19 6 10 1015.3 1014.1 0.0
21/11:00am 28.2 28.0 15.8 47 7.7 NNE 11 19 6 10 1015.7 1014.5 0.0
21/10:30am 26.9 26.3 15.6 50 7.0 NE 13 20 7 11 1015.6 1014.4 0.0
21/10:00am 25.9 25.5 16.2 55 6.0 E 13 19 7 10 1015.8 1014.6 0.0
21/09:30am 24.8 24.5 16.5 60 5.1 ENE 13 20 7 11 1015.9 1014.7 0.0
21/09:00am 23.2 22.0 16.0 64 4.4 E 17 24 9 13 1015.8 1014.6 0.0
21/08:30am 21.9 21.5 16.2 70 3.5 E 13 20 7 11 1015.8 1014.6 0.0
21/08:00am 20.7 20.6 16.1 75 2.8 E 11 22 6 12 1015.4 1014.2 0.0
21/07:30am 19.7 19.7 16.2 80 2.1 ESE 11 15 6 8 1015.2 1014.0 0.0
21/07:00am 19.0 18.8 15.7 81 2.0 E 11 17 6 9 1014.8 1013.6 0.0
21/06:30am 19.1 18.9 15.6 80 2.1 E 11 17 6 9 1014.6 1013.4 0.0
21/06:00am 19.3 19.1 15.8 80 2.1 E 11 17 6 9 1014.4 1013.2 0.0
21/05:30am 19.5 19.0 15.8 79 2.2 E 13 20 7 11 1014.1 1012.9 0.0
21/05:00am 19.8 19.2 15.7 77 2.5 E 13 20 7 11 1014.3 1013.1 0.0
21/04:30am 20.0 19.4 15.6 76 2.6 E 13 20 7 11 1013.8 1012.6 0.0
21/04:00am 20.2 19.2 15.6 75 2.8 E 15 24 8 13 1013.8 1012.6 0.0
21/03:30am 20.3 19.6 15.5 74 2.9 E 13 22 7 12 1013.9 1012.7 0.0
21/03:00am 20.5 19.8 15.3 72 3.1 E 13 20 7 11 1013.9 1012.7 0.0
21/02:30am 20.8 19.7 15.4 71 3.2 E 15 24 8 13 1014.0 1012.8 0.0
21/02:00am 21.1 20.4 15.4 70 3.4 E 13 20 7 11 1014.1 1012.9 0.0
21/01:30am 21.6 20.5 15.4 68 3.7 E 15 20 8 11 1014.6 1013.4 0.0
21/01:00am 22.0 20.9 15.4 66 4.0 E 15 24 8 13 1014.9 1013.7 0.0
21/12:30am 22.5 20.7 15.4 64 4.3 E 19 33 10 18 1014.8 1013.6 0.0
21/12:00am 22.9 20.7 15.0 61 4.7 E 20 33 11 18 1014.7 1013.5 0.0

Other formats

Comma delimited format used in spreadsheet applications
http://www.bom.gov.au/fwo/IDN60801/IDN60801.95710.axf

JavaScript Object Notation format (JSON) in row-major order
http://www.bom.gov.au/fwo/IDN60801/IDN60801.95710.json

Data quality

Most of these data are generated automatically and are frequently updated. Quality checks on data are not normally performed. It is possible for incorrect values to appear. Refer to information at About Latest Weather Observations and please check the disclaimer before using these data.